createdAt,value
2018-09-10T00:00:15.081Z,16.87
2018-09-10T00:01:15.079Z,16.86
2018-09-10T00:02:14.959Z,16.95
2018-09-10T00:03:14.962Z,16.94
2018-09-10T00:04:14.959Z,16.87
2018-09-10T00:05:14.840Z,16.89
2018-09-10T00:06:14.838Z,16.91
2018-09-10T00:07:14.719Z,16.86
2018-09-10T00:08:14.722Z,16.98
2018-09-10T00:09:14.718Z,16.94
2018-09-10T00:10:14.597Z,16.98
2018-09-10T00:11:14.606Z,17.02
2018-09-10T00:12:14.596Z,16.99
2018-09-10T00:13:14.478Z,17.05
2018-09-10T00:14:14.475Z,16.98
2018-09-10T00:15:14.476Z,16.97
2018-09-10T00:16:14.358Z,17.09
2018-09-10T00:17:14.359Z,17.02
2018-09-10T00:18:14.356Z,17.05
2018-09-10T00:19:14.236Z,17.07
2018-09-10T00:20:14.234Z,17.10
2018-09-10T00:21:14.192Z,17.10
2018-09-10T00:22:14.116Z,17.16
2018-09-10T00:23:14.114Z,17.17
2018-09-10T00:24:13.992Z,17.22
2018-09-10T00:25:13.996Z,17.22
2018-09-10T00:26:13.992Z,17.23
2018-09-10T00:27:13.873Z,17.28
2018-09-10T00:28:13.872Z,17.34
2018-09-10T00:29:13.881Z,17.30
2018-09-10T00:30:13.753Z,17.31
2018-09-10T00:31:13.757Z,17.30
2018-09-10T00:32:13.764Z,17.32
2018-09-10T00:33:13.632Z,17.28
2018-09-10T00:34:13.630Z,17.30
2018-09-10T00:35:13.592Z,17.35
2018-09-10T00:36:13.511Z,17.38
2018-09-10T00:37:13.517Z,17.28
2018-09-10T00:38:13.393Z,17.28
2018-09-10T00:39:13.468Z,17.20
2018-09-10T00:40:13.393Z,17.23
2018-09-10T00:41:13.269Z,17.32
2018-09-10T00:42:13.269Z,17.30
2018-09-10T00:43:13.270Z,17.39
2018-09-10T00:44:13.149Z,17.39
2018-09-10T00:45:13.150Z,17.30
2018-09-10T00:46:13.147Z,17.38
2018-09-10T00:47:13.027Z,17.39
2018-09-10T00:48:13.027Z,17.35
2018-09-10T00:49:13.027Z,17.39
2018-09-10T00:50:12.908Z,17.41
2018-09-10T00:51:12.908Z,17.47
2018-09-10T00:52:12.787Z,17.38
2018-09-10T00:53:12.791Z,17.44
2018-09-10T00:54:12.787Z,17.44
2018-09-10T00:55:12.674Z,17.50
2018-09-10T00:56:12.670Z,17.50
2018-09-10T00:57:12.671Z,17.47
2018-09-10T00:58:12.551Z,17.50
2018-09-10T00:59:12.545Z,17.53
2018-09-10T01:00:12.548Z,17.50
2018-09-10T01:01:12.437Z,17.50
2018-09-10T01:02:12.433Z,17.49
2018-09-10T01:03:12.429Z,17.52
2018-09-10T01:04:12.305Z,17.47
2018-09-10T01:05:12.304Z,17.46
2018-09-10T01:06:12.261Z,17.46
2018-09-10T01:07:12.185Z,17.42
2018-09-10T01:08:12.185Z,17.46
2018-09-10T01:09:12.064Z,17.46
2018-09-10T01:10:12.063Z,17.41
2018-09-10T01:11:12.064Z,17.50
2018-09-10T01:12:11.944Z,17.41
2018-09-10T01:13:11.943Z,17.42
2018-09-10T01:14:11.948Z,17.44
2018-09-10T01:15:11.824Z,17.37
2018-09-10T01:16:11.823Z,17.30
2018-09-10T01:17:11.824Z,17.34
2018-09-10T01:18:11.702Z,17.39
2018-09-10T01:19:11.703Z,17.37
2018-09-10T01:20:11.701Z,17.35
2018-09-10T01:21:11.585Z,17.27
2018-09-10T01:22:11.582Z,17.37
2018-09-10T01:23:11.459Z,17.24
2018-09-10T01:24:11.460Z,17.28
2018-09-10T01:25:11.460Z,17.19
2018-09-10T01:26:11.341Z,17.24
2018-09-10T01:27:11.339Z,17.34
2018-09-10T01:28:11.340Z,17.34
2018-09-10T01:29:11.221Z,17.24
2018-09-10T01:30:11.221Z,17.22
2018-09-10T01:31:11.219Z,17.19
2018-09-10T01:32:11.101Z,17.13
2018-09-10T01:33:11.101Z,17.13
2018-09-10T01:34:11.098Z,17.17
2018-09-10T01:35:10.982Z,17.14
2018-09-10T01:36:10.988Z,17.17
2018-09-10T01:37:10.860Z,17.13
2018-09-10T01:38:10.860Z,17.13
2018-09-10T01:39:10.860Z,17.16
2018-09-10T01:40:10.739Z,17.10
2018-09-10T01:41:10.736Z,17.04
2018-09-10T01:42:10.739Z,17.07
2018-09-10T01:43:10.617Z,17.02
2018-09-10T01:44:10.614Z,17.13
2018-09-10T01:45:10.615Z,17.04
2018-09-10T01:46:10.495Z,17.12
2018-09-10T01:47:10.495Z,17.05
2018-09-10T01:48:10.496Z,16.98
2018-09-10T01:49:10.373Z,17.10
2018-09-10T01:50:10.376Z,17.01
2018-09-10T01:51:10.333Z,16.97
2018-09-10T01:52:10.255Z,17.09
2018-09-10T01:53:10.259Z,17.05
2018-09-10T01:54:10.133Z,17.04
2018-09-10T01:55:10.133Z,16.94
2018-09-10T01:56:10.132Z,16.87
2018-09-10T01:57:10.015Z,16.87
2018-09-10T01:58:10.013Z,16.94
2018-09-10T01:59:10.019Z,16.98
2018-09-10T02:00:09.892Z,16.87
2018-09-10T02:01:09.896Z,16.87
2018-09-10T02:02:09.897Z,16.86
2018-09-10T02:03:09.776Z,16.91
2018-09-10T02:04:09.772Z,16.83
2018-09-10T02:05:09.731Z,16.82
2018-09-10T02:06:09.652Z,16.80
2018-09-10T02:07:09.649Z,16.73
2018-09-10T02:08:09.535Z,16.73
2018-09-10T02:09:09.533Z,16.73
2018-09-10T02:10:09.531Z,16.77
2018-09-10T02:11:09.411Z,16.76
2018-09-10T02:12:09.408Z,16.72
2018-09-10T02:13:09.411Z,16.65
2018-09-10T02:14:09.294Z,16.66
2018-09-10T02:15:09.288Z,16.58
2018-09-10T02:16:09.288Z,16.61
2018-09-10T02:17:09.284Z,16.62
2018-09-10T02:18:09.167Z,16.59
2018-09-10T02:19:09.054Z,16.55
2018-09-10T02:20:09.089Z,16.57
2018-09-10T02:21:09.046Z,16.54
2018-09-10T02:22:08.928Z,16.44
2018-09-10T02:23:08.931Z,16.44
2018-09-10T02:24:08.925Z,16.43
2018-09-10T02:25:08.805Z,16.41
2018-09-10T02:26:08.807Z,16.39
2018-09-10T02:27:08.805Z,16.37
2018-09-10T02:28:08.689Z,16.37
2018-09-10T02:29:08.747Z,16.28
2018-09-10T02:30:08.689Z,16.36
2018-09-10T02:31:08.567Z,16.29
2018-09-10T02:32:08.569Z,16.29
2018-09-10T02:33:08.450Z,16.29
2018-09-10T02:34:08.446Z,16.24
2018-09-10T02:35:08.445Z,16.22
2018-09-10T02:36:08.324Z,16.28
2018-09-10T02:37:08.324Z,16.22
2018-09-10T02:38:08.325Z,16.24
2018-09-10T02:39:08.204Z,16.25
2018-09-10T02:40:08.202Z,16.17
2018-09-10T02:41:08.205Z,16.13
2018-09-10T02:42:08.080Z,16.16
2018-09-10T02:43:08.088Z,16.13
2018-09-10T02:44:08.084Z,16.25
2018-09-10T02:45:08.038Z,16.13
2018-09-10T02:46:07.966Z,16.22
2018-09-10T02:47:07.852Z,16.21
2018-09-10T02:48:07.840Z,16.17
2018-09-10T02:49:07.839Z,16.16
2018-09-10T02:50:07.724Z,16.13
2018-09-10T02:51:07.722Z,16.13
2018-09-10T02:52:07.721Z,16.16
2018-09-10T02:53:07.603Z,16.12
2018-09-10T02:54:07.602Z,16.10
2018-09-10T02:55:07.665Z,16.10
2018-09-10T02:56:07.479Z,16.18
2018-09-10T02:57:07.482Z,16.08
2018-09-10T02:58:07.439Z,16.10
2018-09-10T02:59:07.361Z,16.08
2018-09-10T03:00:07.358Z,16.06
2018-09-10T03:01:07.241Z,16.12
2018-09-10T03:02:07.247Z,16.03
2018-09-10T03:03:07.240Z,16.06
2018-09-10T03:04:07.118Z,16.00
2018-09-10T03:05:07.123Z,16.06
2018-09-10T03:06:07.119Z,16.08
2018-09-10T03:07:07.001Z,16.08
2018-09-10T03:08:06.999Z,16.02
2018-09-10T03:09:06.999Z,15.98
2018-09-10T03:10:06.881Z,16.03
2018-09-10T03:11:06.876Z,16.02
2018-09-10T03:12:06.757Z,16.05
2018-09-10T03:13:06.755Z,16.05
2018-09-10T03:14:06.754Z,16.00
2018-09-10T03:15:06.633Z,16.00
2018-09-10T03:16:06.636Z,15.96
2018-09-10T03:17:06.638Z,16.02
2018-09-10T03:18:06.569Z,16.05
2018-09-10T03:19:06.515Z,16.00
2018-09-10T03:20:06.514Z,16.03
2018-09-10T03:21:06.395Z,16.02
2018-09-10T03:22:06.399Z,16.02
2018-09-10T03:23:06.272Z,16.10
2018-09-10T03:24:06.361Z,16.02
2018-09-10T03:25:06.273Z,16.08
2018-09-10T03:26:06.155Z,16.05
2018-09-10T03:27:06.151Z,16.08
2018-09-10T03:28:06.152Z,16.08
2018-09-10T03:29:06.031Z,16.13
2018-09-10T03:30:06.043Z,16.12
2018-09-10T03:31:06.032Z,16.10
2018-09-10T03:32:05.912Z,16.08
2018-09-10T03:33:05.910Z,16.10
2018-09-10T03:34:05.911Z,16.10
2018-09-10T03:35:05.789Z,16.12
2018-09-10T03:36:05.792Z,16.13
2018-09-10T03:37:05.792Z,16.12
2018-09-10T03:38:05.675Z,16.16
2018-09-10T03:39:05.672Z,16.21
2018-09-10T03:40:05.548Z,16.16
2018-09-10T03:41:05.551Z,16.13
2018-09-10T03:42:05.552Z,16.22
2018-09-10T03:43:05.428Z,16.16
2018-09-10T03:44:05.431Z,16.22
2018-09-10T03:45:05.428Z,16.16
2018-09-10T03:46:05.306Z,16.09
2018-09-10T03:47:05.307Z,16.24
2018-09-10T03:48:05.191Z,16.18
2018-09-10T03:49:05.186Z,16.17
2018-09-10T03:50:05.186Z,16.24
2018-09-10T03:51:05.071Z,16.24
2018-09-10T03:52:05.066Z,16.17
2018-09-10T03:53:05.068Z,16.21
2018-09-10T03:54:04.946Z,16.24
2018-09-10T03:55:04.947Z,16.26
2018-09-10T03:56:04.943Z,16.36
2018-09-10T03:57:04.827Z,16.32
2018-09-10T03:58:04.825Z,16.25
2018-09-10T03:59:04.824Z,16.29
2018-09-10T04:00:04.705Z,16.18
2018-09-10T04:01:04.706Z,16.24
2018-09-10T04:02:04.586Z,16.34
2018-09-10T04:03:04.585Z,16.32
2018-09-10T04:04:04.584Z,16.36
2018-09-10T04:05:04.466Z,16.26
2018-09-10T04:06:04.462Z,16.25
2018-09-10T04:07:04.461Z,16.31
2018-09-10T04:08:04.342Z,16.26
2018-09-10T04:09:04.342Z,16.41
2018-09-10T04:10:04.345Z,16.32
2018-09-10T04:11:04.225Z,16.47
2018-09-10T04:12:04.222Z,16.44
2018-09-10T04:13:04.181Z,16.44
2018-09-10T04:14:04.101Z,16.44
2018-09-10T04:15:04.106Z,16.41
2018-09-10T04:16:03.982Z,16.43
2018-09-10T04:17:04.034Z,16.46
2018-09-10T04:18:03.980Z,16.49
2018-09-10T04:19:03.864Z,16.50
2018-09-10T04:20:03.858Z,16.51
2018-09-10T04:21:03.861Z,16.49
2018-09-10T04:22:03.739Z,16.51
2018-09-10T04:23:03.740Z,16.57
2018-09-10T04:24:03.744Z,16.57
2018-09-10T04:25:03.616Z,16.54
2018-09-10T04:26:03.726Z,16.59
2018-09-10T04:27:03.501Z,16.57
2018-09-10T04:28:03.509Z,16.57
2018-09-10T04:29:03.503Z,16.58
2018-09-10T04:30:03.378Z,16.59
2018-09-10T04:31:03.452Z,16.58
2018-09-10T04:32:03.379Z,16.61
2018-09-10T04:33:03.265Z,16.51
2018-09-10T04:34:03.261Z,16.55
2018-09-10T04:35:03.259Z,16.58
2018-09-10T04:36:03.195Z,16.61
2018-09-10T04:37:03.134Z,16.57
2018-09-10T04:38:03.135Z,16.54
2018-09-10T04:39:03.018Z,16.57
2018-09-10T04:40:03.016Z,16.54
2018-09-10T04:41:02.896Z,16.50
2018-09-10T04:42:02.915Z,16.50
2018-09-10T04:43:02.893Z,16.55
2018-09-10T04:44:02.774Z,16.55
2018-09-10T04:45:02.775Z,16.59
2018-09-10T04:46:02.774Z,16.61
2018-09-10T04:47:02.655Z,16.61
2018-09-10T04:48:02.653Z,16.54
2018-09-10T04:49:02.660Z,16.54
2018-09-10T04:50:02.532Z,16.55
2018-09-10T04:51:02.546Z,16.59
2018-09-10T04:52:02.545Z,16.57
2018-09-10T04:53:02.412Z,16.61
2018-09-10T04:54:02.413Z,16.58
2018-09-10T04:55:02.293Z,16.58
2018-09-10T04:56:02.293Z,16.54
2018-09-10T04:57:02.289Z,16.59
2018-09-10T04:58:02.224Z,16.55
2018-09-10T04:59:02.170Z,16.61
2018-09-10T05:00:02.172Z,16.58
2018-09-10T05:01:02.053Z,16.57
2018-09-10T05:02:02.052Z,16.51
2018-09-10T05:03:02.050Z,16.58
2018-09-10T05:04:01.927Z,16.57
2018-09-10T05:05:01.935Z,16.61
2018-09-10T05:06:01.931Z,16.50
2018-09-10T05:07:01.824Z,16.54
2018-09-10T05:08:01.810Z,16.55
2018-09-10T05:09:01.688Z,16.50
2018-09-10T05:10:01.715Z,16.46
2018-09-10T05:11:01.686Z,16.51
2018-09-10T05:12:01.567Z,16.58
2018-09-10T05:13:01.566Z,16.51
2018-09-10T05:14:01.566Z,16.50
2018-09-10T05:15:01.449Z,16.58
2018-09-10T05:16:01.446Z,16.58
2018-09-10T05:17:01.444Z,16.57
2018-09-10T05:18:01.327Z,16.61
2018-09-10T05:19:01.325Z,16.59
2018-09-10T05:20:01.209Z,16.61
2018-09-10T05:21:01.207Z,16.61
2018-09-10T05:22:01.335Z,16.55
2018-09-10T05:23:01.086Z,16.57
2018-09-10T05:24:01.085Z,16.58
2018-09-10T05:25:01.084Z,16.62
2018-09-10T05:26:00.970Z,16.57
2018-09-10T05:27:00.970Z,16.66
2018-09-10T05:28:00.982Z,16.59
2018-09-10T05:29:00.845Z,16.62
2018-09-10T05:30:00.845Z,16.68
2018-09-10T05:31:00.844Z,16.65
2018-09-10T05:32:00.724Z,16.69
2018-09-10T05:33:00.721Z,16.68
2018-09-10T05:34:00.603Z,16.76
2018-09-10T05:35:00.601Z,16.69
2018-09-10T05:36:00.602Z,16.76
2018-09-10T05:37:00.486Z,16.74
2018-09-10T05:38:00.484Z,16.76
2018-09-10T05:39:00.485Z,16.72
2018-09-10T05:40:00.361Z,16.73
2018-09-10T05:41:00.363Z,16.73
2018-09-10T05:42:00.388Z,16.80
2018-09-10T05:43:00.241Z,16.74
2018-09-10T05:44:00.245Z,16.79
2018-09-10T05:45:00.242Z,16.84
2018-09-10T05:46:00.119Z,16.83
2018-09-10T05:47:00.122Z,16.76
2018-09-10T05:48:00.001Z,16.82
2018-09-10T05:48:59.997Z,16.84
2018-09-10T05:49:59.999Z,16.84
2018-09-10T05:50:59.879Z,16.82
2018-09-10T05:51:59.878Z,16.92
2018-09-10T05:52:59.877Z,16.89
2018-09-10T05:53:59.756Z,16.92
2018-09-10T05:54:59.759Z,16.89
2018-09-10T05:55:59.759Z,16.92
2018-09-10T05:56:59.639Z,16.87
2018-09-10T05:57:59.639Z,16.87
2018-09-10T05:58:59.596Z,16.84
2018-09-10T05:59:59.516Z,16.91
2018-09-10T06:00:59.518Z,16.91
2018-09-10T06:01:59.394Z,16.99
2018-09-10T06:02:59.395Z,17.01
2018-09-10T06:03:59.398Z,16.98
2018-09-10T06:04:59.278Z,17.07
2018-09-10T06:05:59.277Z,17.01
2018-09-10T06:06:59.273Z,17.09
2018-09-10T06:07:59.154Z,17.05
2018-09-10T06:08:59.156Z,17.12
2018-09-10T06:09:59.153Z,17.10
2018-09-10T06:10:59.044Z,17.13
2018-09-10T06:11:59.034Z,17.13
2018-09-10T06:12:58.991Z,17.24
2018-09-10T06:13:58.916Z,17.22
2018-09-10T06:14:58.920Z,17.23
2018-09-10T06:15:58.793Z,17.28
2018-09-10T06:16:58.792Z,17.28
2018-09-10T06:17:58.793Z,17.24
2018-09-10T06:18:58.672Z,17.32
2018-09-10T06:19:58.672Z,17.30
2018-09-10T06:20:58.675Z,17.37
2018-09-10T06:21:58.553Z,17.34
2018-09-10T06:22:58.552Z,17.24
2018-09-10T06:23:58.554Z,17.24
2018-09-10T06:24:58.430Z,17.31
2018-09-10T06:25:58.439Z,17.38
2018-09-10T06:26:58.425Z,17.41
2018-09-10T06:27:58.310Z,17.44
2018-09-10T06:28:58.312Z,17.44
2018-09-10T06:29:58.189Z,17.47
2018-09-10T06:30:58.191Z,17.44
2018-09-10T06:31:58.192Z,17.47
2018-09-10T06:32:58.073Z,17.50
2018-09-10T06:33:58.101Z,17.47
2018-09-10T06:34:58.067Z,17.54
2018-09-10T06:35:57.949Z,17.57
2018-09-10T06:36:57.960Z,17.60
2018-09-10T06:37:57.947Z,17.59
2018-09-10T06:38:57.830Z,17.57
2018-09-10T06:39:57.830Z,17.63
2018-09-10T06:40:57.827Z,17.69
2018-09-10T06:41:57.705Z,17.73
2018-09-10T06:42:57.705Z,17.78
2018-09-10T06:43:57.590Z,17.75
2018-09-10T06:44:57.588Z,17.79
2018-09-10T06:45:57.586Z,17.80
2018-09-10T06:46:57.464Z,17.86
2018-09-10T06:47:57.468Z,17.87
2018-09-10T06:48:57.467Z,17.84
2018-09-10T06:49:57.351Z,17.88
2018-09-10T06:50:57.346Z,17.95
2018-09-10T06:51:57.345Z,18.00
2018-09-10T06:52:57.233Z,18.00
2018-09-10T06:53:57.228Z,17.93
2018-09-10T06:54:57.223Z,18.06
2018-09-10T06:55:57.102Z,18.06
2018-09-10T06:56:57.104Z,18.00
2018-09-10T06:57:57.063Z,18.11
2018-09-10T06:58:56.983Z,18.23
2018-09-10T06:59:56.982Z,18.23
2018-09-10T07:00:56.868Z,18.19
2018-09-10T07:01:56.864Z,18.34
2018-09-10T07:02:56.862Z,18.33
2018-09-10T07:03:56.746Z,18.30
2018-09-10T07:04:56.740Z,18.41
2018-09-10T07:05:56.791Z,18.36
2018-09-10T07:06:56.621Z,18.37
2018-09-10T07:07:56.628Z,18.39
2018-09-10T07:08:56.626Z,18.45
2018-09-10T07:09:56.500Z,18.46
2018-09-10T07:10:56.497Z,18.46
2018-09-10T07:11:56.498Z,18.45
2018-09-10T07:12:56.382Z,18.49
2018-09-10T07:13:56.377Z,18.63
2018-09-10T07:14:56.336Z,18.52
2018-09-10T07:15:56.258Z,18.64
2018-09-10T07:16:56.259Z,18.71
2018-09-10T07:17:56.139Z,18.71
2018-09-10T07:18:56.176Z,18.73
2018-09-10T07:19:56.139Z,18.78
2018-09-10T07:20:56.017Z,18.78
2018-09-10T07:21:56.018Z,18.81
2018-09-10T07:22:56.017Z,18.88
2018-09-10T07:23:55.898Z,18.89
2018-09-10T07:24:55.896Z,18.83
2018-09-10T07:25:55.897Z,18.88
2018-09-10T07:26:55.775Z,18.98
2018-09-10T07:27:55.775Z,18.96
2018-09-10T07:28:55.777Z,18.96
2018-09-10T07:29:55.656Z,19.07
2018-09-10T07:30:55.668Z,19.08
2018-09-10T07:31:55.659Z,19.05
2018-09-10T07:32:55.612Z,19.12
2018-09-10T07:33:55.539Z,19.22
2018-09-10T07:34:55.417Z,19.26
2018-09-10T07:35:55.412Z,19.20
2018-09-10T07:36:55.416Z,19.30
2018-09-10T07:37:55.294Z,19.23
2018-09-10T07:38:55.295Z,19.29
2018-09-10T07:39:55.291Z,19.32
2018-09-10T07:40:55.172Z,19.30
2018-09-10T07:41:55.170Z,19.32
2018-09-10T07:42:55.173Z,19.44
2018-09-10T07:43:55.175Z,19.45
2018-09-10T07:44:55.052Z,19.38
2018-09-10T07:45:55.050Z,19.39
2018-09-10T07:46:54.933Z,19.45
2018-09-10T07:47:54.932Z,19.49
2018-09-10T07:48:54.973Z,19.42
2018-09-10T07:49:54.809Z,19.53
2018-09-10T07:50:54.808Z,19.56
2018-09-10T07:51:54.809Z,19.57
2018-09-10T07:52:54.690Z,19.52
2018-09-10T07:53:54.687Z,19.64
2018-09-10T07:54:54.571Z,19.66
2018-09-10T07:55:54.581Z,19.66
2018-09-10T07:56:54.568Z,19.71
2018-09-10T07:57:54.448Z,19.71
2018-09-10T07:58:54.447Z,19.81
2018-09-10T07:59:54.448Z,19.77
2018-09-10T08:00:54.330Z,19.84
2018-09-10T08:01:54.327Z,19.81
2018-09-10T08:02:54.345Z,19.92
2018-09-10T08:03:54.206Z,19.94
2018-09-10T08:04:54.207Z,19.97
2018-09-10T08:05:54.208Z,20.00
2018-09-10T08:06:54.091Z,19.99
2018-09-10T08:07:54.098Z,20.02
2018-09-10T08:08:54.084Z,20.07
2018-09-10T08:09:53.966Z,20.12
2018-09-10T08:10:53.964Z,20.12
2018-09-10T08:11:53.974Z,20.07
2018-09-10T08:12:53.843Z,20.21
2018-09-10T08:13:53.843Z,20.27
2018-09-10T08:14:53.843Z,20.19
2018-09-10T08:15:53.725Z,20.27
2018-09-10T08:16:53.732Z,20.19
2018-09-10T08:17:53.682Z,20.36
2018-09-10T08:18:53.601Z,20.39
2018-09-10T08:19:53.612Z,20.55
2018-09-10T08:20:53.481Z,20.66
2018-09-10T08:21:53.481Z,20.80
2018-09-10T08:22:53.488Z,20.86
2018-09-10T08:23:53.366Z,21.01
2018-09-10T08:24:53.362Z,21.01
2018-09-10T08:25:53.363Z,21.23
2018-09-10T08:26:53.241Z,21.25
2018-09-10T08:27:53.243Z,21.38
2018-09-10T08:28:53.242Z,21.40
2018-09-10T08:29:53.118Z,21.35
2018-09-10T08:30:53.123Z,21.44
2018-09-10T08:31:53.129Z,21.35
2018-09-10T08:32:52.998Z,21.45
2018-09-10T08:33:52.999Z,21.44
2018-09-10T08:34:52.998Z,21.53
2018-09-10T08:35:52.878Z,21.58
2018-09-10T08:37:52.879Z,21.59
2018-09-10T08:38:52.759Z,21.51
2018-09-10T08:39:52.757Z,21.51
2018-09-10T08:40:52.759Z,21.59
2018-09-10T08:41:52.637Z,21.51
2018-09-10T08:42:52.725Z,21.63
2018-09-10T08:43:52.636Z,21.56
2018-09-10T08:44:52.516Z,21.56
2018-09-10T08:45:52.516Z,21.63
2018-09-10T08:46:52.519Z,21.58
2018-09-10T08:47:52.396Z,21.65
2018-09-10T08:48:52.397Z,21.66
2018-09-10T08:49:52.400Z,21.69
2018-09-10T08:50:52.276Z,21.75
2018-09-10T08:51:52.278Z,21.83
2018-09-10T08:52:52.271Z,21.85
2018-09-10T08:53:52.168Z,21.94
2018-09-10T08:54:52.456Z,21.94
2018-09-10T08:55:52.515Z,22.06
2018-09-10T08:56:52.033Z,22.03
2018-09-10T08:57:52.034Z,22.08
2018-09-10T08:58:51.916Z,22.03
2018-09-10T08:59:51.914Z,22.08
2018-09-10T09:00:51.916Z,22.21
2018-09-10T09:01:51.916Z,22.23
2018-09-10T09:02:51.796Z,22.23
2018-09-10T09:03:51.799Z,22.34
2018-09-10T09:04:51.682Z,22.31
2018-09-10T09:05:51.738Z,22.44
2018-09-10T09:06:51.683Z,22.44
2018-09-10T09:07:51.605Z,22.55
2018-09-10T09:08:51.557Z,22.58
2018-09-10T09:09:51.553Z,22.56
2018-09-10T09:10:51.432Z,22.73
2018-09-10T09:11:51.432Z,22.70
2018-09-10T09:12:51.430Z,22.77
2018-09-10T09:13:51.310Z,22.80
2018-09-10T09:14:51.310Z,22.74
2018-09-10T09:15:51.311Z,22.81
2018-09-10T09:16:51.191Z,22.83
2018-09-10T09:17:51.193Z,22.89
2018-09-10T09:18:51.192Z,22.96
2018-09-10T09:19:51.071Z,23.01
2018-09-10T09:20:51.078Z,23.10
2018-09-10T09:21:51.069Z,23.13
2018-09-10T09:22:50.950Z,23.07
2018-09-10T09:23:50.951Z,23.04
2018-09-10T09:24:50.946Z,23.07
2018-09-10T09:25:50.831Z,23.17
2018-09-10T09:26:50.838Z,23.07
2018-09-10T09:27:50.827Z,23.20
2018-09-10T09:28:50.834Z,23.23
2018-09-10T09:30:50.710Z,23.32
2018-09-10T09:31:50.708Z,23.36
2018-09-10T09:32:50.703Z,23.40
2018-09-10T09:33:50.712Z,23.42
2018-09-10T09:34:50.466Z,23.40
2018-09-10T09:35:50.471Z,23.39
2018-09-10T09:36:50.471Z,23.33
2018-09-10T09:37:50.347Z,23.49
2018-09-10T09:38:50.347Z,23.45
2018-09-10T09:39:50.345Z,23.52
2018-09-10T09:40:50.227Z,23.64
2018-09-10T09:41:50.225Z,23.76
2018-09-10T09:42:50.229Z,23.85
2018-09-10T09:43:50.104Z,23.89
2018-09-10T09:44:50.104Z,23.99
2018-09-10T09:45:50.105Z,23.95
2018-09-10T09:46:49.984Z,24.09
2018-09-10T09:47:49.982Z,24.11
2018-09-10T09:48:49.988Z,24.24
2018-09-10T09:49:49.866Z,24.22
2018-09-10T09:50:49.906Z,24.26
2018-09-10T09:51:49.863Z,24.26
2018-09-10T09:52:49.744Z,24.26
2018-09-10T09:53:49.743Z,24.22
2018-09-10T09:54:49.746Z,24.31
2018-09-10T09:55:49.625Z,24.31
2018-09-10T09:56:49.620Z,24.34
2018-09-10T09:57:49.623Z,24.37
2018-09-10T09:58:49.499Z,24.43
2018-09-10T09:59:49.499Z,24.41
2018-09-10T10:00:49.499Z,24.37
2018-09-10T10:01:49.379Z,24.38
2018-09-10T10:02:49.381Z,24.34
2018-09-10T10:03:49.378Z,24.31
2018-09-10T10:04:49.264Z,24.43
2018-09-10T10:05:49.274Z,24.32
2018-09-10T10:06:49.259Z,24.32
2018-09-10T10:07:49.253Z,24.34
2018-09-10T10:08:49.146Z,24.43
2018-09-10T10:09:49.141Z,24.40
2018-09-10T10:10:49.138Z,24.31
2018-09-10T10:11:49.183Z,24.36
2018-09-10T10:12:49.017Z,24.34
2018-09-10T10:13:49.015Z,24.29
2018-09-10T10:14:48.907Z,24.44
2018-09-10T10:15:48.894Z,24.34
2018-09-10T10:16:48.899Z,24.32
2018-09-10T10:17:48.780Z,24.32
2018-09-10T10:18:48.780Z,24.36
2018-09-10T10:19:48.776Z,24.29
2018-09-10T10:20:48.659Z,24.29
2018-09-10T10:21:48.655Z,24.32
2018-09-10T10:22:48.654Z,24.28
2018-09-10T10:23:48.537Z,24.25
2018-09-10T10:24:48.536Z,24.32
2018-09-10T10:25:48.537Z,24.24
2018-09-10T10:26:48.415Z,24.22
2018-09-10T10:27:48.416Z,24.31
2018-09-10T10:28:48.427Z,24.26
2018-09-10T10:29:48.292Z,24.25
2018-09-10T10:30:48.292Z,24.29
2018-09-10T10:31:48.192Z,24.31
2018-09-10T10:32:48.152Z,24.36
2018-09-10T10:33:48.111Z,24.31
2018-09-10T10:34:48.074Z,24.25
2018-09-10T10:35:48.045Z,24.37
2018-09-10T10:36:47.992Z,24.36
2018-09-10T10:37:47.953Z,24.34
2018-09-10T10:38:47.916Z,24.29
2018-09-10T10:39:47.872Z,24.26
2018-09-10T10:40:47.837Z,24.25
2018-09-10T10:41:47.796Z,24.26
2018-09-10T10:42:47.758Z,24.28
2018-09-10T10:43:47.713Z,24.13
2018-09-10T10:44:47.680Z,24.11
2018-09-10T10:45:47.639Z,24.11
2018-09-10T10:46:47.595Z,24.14
2018-09-10T10:47:47.556Z,24.13
2018-09-10T10:48:47.524Z,24.13
2018-09-10T10:49:47.477Z,24.11
2018-09-10T10:50:47.441Z,24.11
2018-09-10T10:51:47.397Z,24.10
2018-09-10T10:52:47.361Z,24.24
2018-09-10T10:53:47.392Z,24.26
2018-09-10T10:54:47.278Z,24.19
2018-09-10T10:55:47.242Z,24.25
2018-09-10T10:56:47.204Z,24.26
2018-09-10T10:57:47.170Z,24.26
2018-09-10T10:58:47.117Z,24.29
2018-09-10T10:59:47.080Z,24.31
2018-09-10T11:00:47.044Z,24.28
2018-09-10T11:01:47.001Z,24.36
2018-09-10T11:02:46.962Z,24.28
2018-09-10T11:03:46.983Z,24.36
2018-09-10T11:04:46.883Z,24.34
2018-09-10T11:05:46.847Z,24.43
2018-09-10T11:06:46.804Z,24.41
2018-09-10T11:07:46.764Z,24.51
2018-09-10T11:08:46.725Z,24.50
2018-09-10T11:09:46.684Z,24.51
2018-09-10T11:10:46.650Z,24.59
2018-09-10T11:11:46.605Z,24.59
2018-09-10T11:12:46.566Z,24.68
2018-09-10T11:13:46.527Z,24.68
2018-09-10T11:14:46.485Z,24.66
2018-09-10T11:15:46.449Z,24.69
2018-09-10T11:16:46.528Z,24.66
2018-09-10T11:17:46.371Z,24.65
2018-09-10T11:18:46.334Z,24.84
2018-09-10T11:19:46.289Z,24.68
2018-09-10T11:20:46.262Z,24.68
2018-09-10T11:21:46.226Z,24.66
2018-09-10T11:22:46.175Z,24.69
2018-09-10T11:23:46.134Z,24.81
2018-09-10T11:24:46.096Z,24.77
2018-09-10T11:25:46.059Z,24.78
2018-09-10T11:26:46.018Z,24.88
2018-09-10T11:27:45.980Z,24.89
2018-09-10T11:28:45.934Z,25.03
2018-09-10T11:29:45.894Z,24.94
2018-09-10T11:30:45.854Z,24.96
2018-09-10T11:31:45.821Z,24.94
2018-09-10T11:32:45.777Z,24.96
2018-09-10T11:33:45.744Z,25.03
2018-09-10T11:34:45.795Z,25.12
2018-09-10T11:35:45.657Z,25.12
2018-09-10T11:36:45.624Z,25.14
2018-09-10T11:37:45.586Z,25.21
2018-09-10T11:38:45.546Z,25.16
2018-09-10T11:39:45.503Z,25.24
2018-09-10T11:40:45.461Z,25.24
2018-09-10T11:41:45.421Z,25.21
2018-09-10T11:42:45.383Z,25.19
2018-09-10T11:43:45.344Z,25.21
2018-09-10T11:44:45.310Z,25.26
2018-09-10T11:45:45.267Z,25.29
2018-09-10T11:46:45.225Z,25.24
2018-09-10T11:47:45.189Z,25.22
2018-09-10T11:48:45.147Z,25.24
2018-09-10T11:49:45.108Z,25.24
2018-09-10T11:50:45.068Z,25.22
2018-09-10T11:51:45.034Z,25.21
2018-09-10T11:52:44.994Z,25.25
2018-09-10T11:53:44.953Z,25.25
2018-09-10T11:54:44.913Z,25.14
2018-09-10T11:55:44.912Z,25.21
2018-09-10T11:56:44.839Z,25.25
2018-09-10T11:57:44.799Z,25.21
2018-09-10T11:58:44.766Z,25.03
2018-09-10T11:59:44.716Z,25.01
2018-09-10T12:00:44.676Z,24.93
2018-09-10T12:01:44.684Z,24.88
2018-09-10T12:02:44.603Z,24.89
2018-09-10T12:03:44.563Z,24.68
2018-09-10T12:04:44.521Z,24.65
2018-09-10T12:05:44.482Z,24.66
2018-09-10T12:06:44.449Z,24.65
2018-09-10T12:07:44.401Z,24.63
2018-09-10T12:08:44.364Z,24.61
2018-09-10T12:09:44.323Z,24.50
2018-09-10T12:10:44.285Z,24.46
2018-09-10T12:11:44.247Z,24.37
2018-09-10T12:12:44.208Z,24.34
2018-09-10T12:13:44.245Z,24.40
2018-09-10T12:14:44.128Z,24.31
2018-09-10T12:15:44.089Z,24.41
2018-09-10T12:16:44.070Z,24.34
2018-09-10T12:17:44.008Z,24.31
2018-09-10T12:18:43.967Z,24.31
2018-09-10T12:19:43.932Z,24.25
2018-09-10T12:20:43.892Z,24.26
2018-09-10T12:21:43.849Z,24.32
2018-09-10T12:22:43.817Z,24.25
2018-09-10T12:23:43.801Z,24.26
2018-09-10T12:24:43.730Z,24.09
2018-09-10T12:25:43.695Z,24.16
2018-09-10T12:26:43.759Z,24.13
2018-09-10T12:27:43.619Z,24.09
2018-09-10T12:28:43.572Z,24.07
2018-09-10T12:29:43.533Z,24.07
2018-09-10T12:30:43.523Z,24.06
2018-09-10T12:31:43.457Z,24.04
2018-09-10T12:32:43.413Z,23.94
2018-09-10T12:33:43.378Z,24.00
2018-09-10T12:34:43.335Z,23.99
2018-09-10T12:35:43.292Z,23.94
2018-09-10T12:36:43.253Z,23.85
2018-09-10T12:37:43.214Z,23.88
2018-09-10T12:38:43.178Z,23.91
2018-09-10T12:39:43.222Z,23.89
2018-09-10T12:40:43.094Z,23.86
2018-09-10T12:41:43.055Z,23.94
2018-09-10T12:42:43.018Z,23.94
2018-09-10T12:43:42.988Z,23.99
2018-09-10T12:44:42.940Z,23.96
2018-09-10T12:45:42.913Z,24.04
2018-09-10T12:46:42.864Z,24.11
2018-09-10T12:47:42.930Z,24.07
2018-09-10T12:48:42.779Z,24.13
2018-09-10T12:49:42.745Z,24.11
2018-09-10T12:50:42.736Z,24.14
2018-09-10T12:51:42.659Z,24.10
2018-09-10T12:52:42.618Z,24.24
2018-09-10T12:53:42.576Z,24.10